sensor_id;sensor_type;location;lat;lon;timestamp;pressure;altitude;pressure_sealevel;temperature;humidity
71384;BME280;61466;52.166;5.004;2022-07-29T00:01:14;101920.88;;;18.62;53.00
71384;BME280;61466;52.166;5.004;2022-07-29T00:03:40;101928.03;;;18.58;52.95
71384;BME280;61466;52.166;5.004;2022-07-29T00:06:05;101909.38;;;18.52;52.90
71384;BME280;61466;52.166;5.004;2022-07-29T00:08:31;101920.47;;;18.55;52.59
71384;BME280;61466;52.166;5.004;2022-07-29T00:10:56;101917.50;;;18.52;52.82
71384;BME280;61466;52.166;5.004;2022-07-29T00:13:21;101914.28;;;18.50;52.96
71384;BME280;61466;52.166;5.004;2022-07-29T00:15:47;101907.88;;;18.46;53.19
71384;BME280;61466;52.166;5.004;2022-07-29T00:18:12;101897.38;;;18.39;53.11
71384;BME280;61466;52.166;5.004;2022-07-29T00:20:37;101901.19;;;18.38;52.97
71384;BME280;61466;52.166;5.004;2022-07-29T00:23:03;101907.34;;;18.44;53.04
71384;BME280;61466;52.166;5.004;2022-07-29T00:25:28;101885.28;;;18.31;53.27
71384;BME280;61466;52.166;5.004;2022-07-29T00:27:53;101898.56;;;18.33;53.24
71384;BME280;61466;52.166;5.004;2022-07-29T00:30:18;101901.19;;;18.38;53.27
71384;BME280;61466;52.166;5.004;2022-07-29T00:32:44;101885.59;;;18.30;53.59
71384;BME280;61466;52.166;5.004;2022-07-29T00:35:09;101895.53;;;18.34;53.28
71384;BME280;61466;52.166;5.004;2022-07-29T00:37:53;101887.25;;;18.26;53.79
71384;BME280;61466;52.166;5.004;2022-07-29T00:40:18;101871.38;;;18.19;53.71
71384;BME280;61466;52.166;5.004;2022-07-29T00:42:45;101894.59;;;18.25;54.00
71384;BME280;61466;52.166;5.004;2022-07-29T00:45:12;101886.81;;;18.18;53.82
71384;BME280;61466;52.166;5.004;2022-07-29T00:47:38;101868.78;;;18.09;53.82
71384;BME280;61466;52.166;5.004;2022-07-29T00:50:05;101880.09;;;18.16;53.94
71384;BME280;61466;52.166;5.004;2022-07-29T00:52:33;101881.75;;;18.12;54.25
71384;BME280;61466;52.166;5.004;2022-07-29T00:54:58;101880.13;;;18.11;54.54
71384;BME280;61466;52.166;5.004;2022-07-29T00:57:24;101883.34;;;18.13;54.06
71384;BME280;61466;52.166;5.004;2022-07-29T00:59:49;101890.44;;;18.09;54.29
71384;BME280;61466;52.166;5.004;2022-07-29T01:02:14;101884.47;;;18.12;54.19
71384;BME280;61466;52.166;5.004;2022-07-29T01:04:40;101886.66;;;18.10;54.56
71384;BME280;61466;52.166;5.004;2022-07-29T01:07:06;101883.94;;;18.10;54.67
71384;BME280;61466;52.166;5.004;2022-07-29T01:09:33;101885.84;;;18.09;54.46
71384;BME280;61466;52.166;5.004;2022-07-29T01:12:00;101869.13;;;18.02;54.50
71384;BME280;61466;52.166;5.004;2022-07-29T01:14:26;101875.81;;;18.10;54.27
71384;BME280;61466;52.166;5.004;2022-07-29T01:17:02;101870.47;;;18.05;54.79
71384;BME280;61466;52.166;5.004;2022-07-29T01:19:48;101872.88;;;18.06;54.86
71384;BME280;61466;52.166;5.004;2022-07-29T01:27:41;101867.53;;;18.01;54.61
71384;BME280;61466;52.166;5.004;2022-07-29T01:30:07;101872.16;;;18.00;54.49
71384;BME280;61466;52.166;5.004;2022-07-29T01:32:35;101870.59;;;17.94;54.68
71384;BME280;61466;52.166;5.004;2022-07-29T01:35:05;101863.91;;;17.87;54.51
71384;BME280;61466;52.166;5.004;2022-07-29T01:38:07;101884.78;;;17.86;56.34
71384;BME280;61466;52.166;5.004;2022-07-29T01:40:38;101872.34;;;17.80;55.38
71384;BME280;61466;52.166;5.004;2022-07-29T01:43:37;101874.50;;;17.83;55.70
71384;BME280;61466;52.166;5.004;2022-07-29T01:46:12;101857.34;;;17.69;55.68
71384;BME280;61466;52.166;5.004;2022-07-29T01:48:50;101872.63;;;17.78;55.82
71384;BME280;61466;52.166;5.004;2022-07-29T01:51:20;101870.78;;;17.74;55.40
71384;BME280;61466;52.166;5.004;2022-07-29T01:54:23;101872.69;;;17.73;56.52
71384;BME280;61466;52.166;5.004;2022-07-29T01:56:51;101858.47;;;17.63;55.60
71384;BME280;61466;52.166;5.004;2022-07-29T01:59:20;101867.56;;;17.72;55.35
71384;BME280;61466;52.166;5.004;2022-07-29T02:01:47;101866.00;;;17.66;55.80
71384;BME280;61466;52.166;5.004;2022-07-29T02:04:14;101855.50;;;17.64;55.40
71384;BME280;61466;52.166;5.004;2022-07-29T02:06:42;101862.75;;;17.69;55.41
71384;BME280;61466;52.166;5.004;2022-07-29T02:09:10;101864.13;;;17.66;55.28
71384;BME280;61466;52.166;5.004;2022-07-29T02:11:38;101834.50;;;17.51;55.83
71384;BME280;61466;52.166;5.004;2022-07-29T02:14:05;101864.84;;;17.72;55.46
71384;BME280;61466;52.166;5.004;2022-07-29T02:16:33;101864.84;;;17.72;55.56
71384;BME280;61466;52.166;5.004;2022-07-29T02:19:01;101857.53;;;17.72;55.45
71384;BME280;61466;52.166;5.004;2022-07-29T02:21:27;101862.16;;;17.72;55.81
71384;BME280;61466;52.166;5.004;2022-07-29T02:23:56;101870.59;;;17.70;55.77
71384;BME280;61466;52.166;5.004;2022-07-29T02:26:24;101851.97;;;17.64;55.74
71384;BME280;61466;52.166;5.004;2022-07-29T02:28:54;101862.47;;;17.70;55.90
71384;BME280;61466;52.166;5.004;2022-07-29T02:31:24;101812.66;;;17.47;55.63
71384;BME280;61466;52.166;5.004;2022-07-29T02:33:51;101854.91;;;17.67;55.95
71384;BME280;61466;52.166;5.004;2022-07-29T02:36:18;101844.88;;;17.68;55.73
71384;BME280;61466;52.166;5.004;2022-07-29T02:38:46;101850.28;;;17.68;55.91
71384;BME280;61466;52.166;5.004;2022-07-29T02:41:18;101844.16;;;17.62;55.53
71384;BME280;61466;52.166;5.004;2022-07-29T02:43:47;101843.81;;;17.69;55.90
71384;BME280;61466;52.166;5.004;2022-07-29T02:46:28;101842.75;;;17.65;56.35
71384;BME280;61466;52.166;5.004;2022-07-29T02:48:59;101834.72;;;17.59;56.03
71384;BME280;61466;52.166;5.004;2022-07-29T02:51:33;101853.88;;;17.63;56.24
71384;BME280;61466;52.166;5.004;2022-07-29T02:54:06;101843.63;;;17.60;56.29
71384;BME280;61466;52.166;5.004;2022-07-29T02:56:33;101851.50;;;17.56;56.15
71384;BME280;61466;52.166;5.004;2022-07-29T02:59:05;101853.66;;;17.59;56.04
71384;BME280;61466;52.166;5.004;2022-07-29T03:01:32;101842.00;;;17.59;56.12
71384;BME280;61466;52.166;5.004;2022-07-29T03:04:02;101835.28;;;17.56;55.81
71384;BME280;61466;52.166;5.004;2022-07-29T03:06:28;101842.53;;;17.61;56.13
71384;BME280;61466;52.166;5.004;2022-07-29T03:08:54;101843.84;;;17.64;56.08
71384;BME280;61466;52.166;5.004;2022-07-29T03:11:20;101842.06;;;17.54;56.49
71384;BME280;61466;52.166;5.004;2022-07-29T03:13:47;101845.03;;;17.57;56.44
71384;BME280;61466;52.166;5.004;2022-07-29T03:16:13;101844.19;;;17.57;55.90
71384;BME280;61466;52.166;5.004;2022-07-29T03:18:39;101840.41;;;17.58;56.28
71384;BME280;61466;52.166;5.004;2022-07-29T03:21:05;101837.97;;;17.56;56.14
71384;BME280;61466;52.166;5.004;2022-07-29T03:23:30;101833.69;;;17.55;56.00
71384;BME280;61466;52.166;5.004;2022-07-29T03:25:56;101833.38;;;17.57;55.98
71384;BME280;61466;52.166;5.004;2022-07-29T03:28:22;101825.38;;;17.47;56.14
71384;BME280;61466;52.166;5.004;2022-07-29T03:30:48;101832.63;;;17.51;56.07
71384;BME280;61466;52.166;5.004;2022-07-29T03:33:14;101829.16;;;17.46;56.15
71384;BME280;61466;52.166;5.004;2022-07-29T03:35:39;101829.97;;;17.46;55.95
71384;BME280;61466;52.166;5.004;2022-07-29T03:38:05;101832.16;;;17.44;55.97
71384;BME280;61466;52.166;5.004;2022-07-29T03:40:34;101817.66;;;17.35;56.13
71384;BME280;61466;52.166;5.004;2022-07-29T03:43:01;101805.34;;;17.24;56.02
71384;BME280;61466;52.166;5.004;2022-07-29T03:45:28;101822.44;;;17.43;55.91
71384;BME280;61466;52.166;5.004;2022-07-29T03:48:02;101823.75;;;17.46;56.12
71384;BME280;61466;52.166;5.004;2022-07-29T03:50:30;101829.09;;;17.51;56.06
71384;BME280;61466;52.166;5.004;2022-07-29T03:52:58;101826.41;;;17.51;55.55
71384;BME280;61466;52.166;5.004;2022-07-29T03:55:24;101815.13;;;17.44;55.91
71384;BME280;61466;52.166;5.004;2022-07-29T03:57:50;101814.03;;;17.45;56.01
71384;BME280;61466;52.166;5.004;2022-07-29T04:00:16;101817.56;;;17.45;55.75
71384;BME280;61466;52.166;5.004;2022-07-29T04:02:43;101806.22;;;17.43;55.91
71384;BME280;61466;52.166;5.004;2022-07-29T04:05:13;101808.63;;;17.45;56.02
71384;BME280;61466;52.166;5.004;2022-07-29T04:07:38;101820.44;;;17.54;55.85
71384;BME280;61466;52.166;5.004;2022-07-29T04:10:04;101814.25;;;17.48;55.70
71384;BME280;61466;52.166;5.004;2022-07-29T04:12:30;101830.97;;;17.55;56.04
71384;BME280;61466;52.166;5.004;2022-07-29T04:14:55;101816.94;;;17.53;55.94
71384;BME280;61466;52.166;5.004;2022-07-29T04:17:20;101828.81;;;17.52;55.66
71384;BME280;61466;52.166;5.004;2022-07-29T04:19:46;101827.75;;;17.53;55.73
71384;BME280;61466;52.166;5.004;2022-07-29T04:22:11;101821.81;;;17.51;55.99
71384;BME280;61466;52.166;5.004;2022-07-29T04:24:36;101829.94;;;17.51;56.34
71384;BME280;61466;52.166;5.004;2022-07-29T04:27:02;101826.19;;;17.47;56.19
71384;BME280;61466;52.166;5.004;2022-07-29T04:29:27;101814.84;;;17.45;56.36
71384;BME280;61466;52.166;5.004;2022-07-29T04:31:52;101820.19;;;17.50;56.32
71384;BME280;61466;52.166;5.004;2022-07-29T04:34:18;101818.63;;;17.44;56.17
71384;BME280;61466;52.166;5.004;2022-07-29T04:36:43;101816.44;;;17.46;56.36
71384;BME280;61466;52.166;5.004;2022-07-29T04:39:08;101817.47;;;17.50;56.04
71384;BME280;61466;52.166;5.004;2022-07-29T04:41:35;101821.81;;;17.51;56.23
71384;BME280;61466;52.166;5.004;2022-07-29T04:44:00;101824.00;;;17.49;56.58
71384;BME280;61466;52.166;5.004;2022-07-29T04:46:29;101807.00;;;17.44;56.66
71384;BME280;61466;52.166;5.004;2022-07-29T04:48:55;101827.44;;;17.55;56.64
71384;BME280;61466;52.166;5.004;2022-07-29T04:51:20;101830.66;;;17.57;56.54
71384;BME280;61466;52.166;5.004;2022-07-29T04:53:45;101830.31;;;17.64;56.79
71384;BME280;61466;52.166;5.004;2022-07-29T04:56:11;101828.97;;;17.66;56.33
71384;BME280;61466;52.166;5.004;2022-07-29T04:58:36;101825.66;;;17.69;56.11
71384;BME280;61466;52.166;5.004;2022-07-29T05:01:02;101826.41;;;17.75;56.36
71384;BME280;61466;52.166;5.004;2022-07-29T05:03:27;101831.47;;;17.81;56.28
71384;BME280;61466;52.166;5.004;2022-07-29T05:05:53;101826.91;;;17.82;56.05
71384;BME280;61466;52.166;5.004;2022-07-29T05:08:18;101825.00;;;17.83;55.84
71384;BME280;61466;52.166;5.004;2022-07-29T05:10:44;101825.22;;;17.86;55.84
71384;BME280;61466;52.166;5.004;2022-07-29T05:13:09;101828.44;;;17.88;56.09
71384;BME280;61466;52.166;5.004;2022-07-29T05:15:35;101819.22;;;17.89;55.81
71384;BME280;61466;52.166;5.004;2022-07-29T05:18:00;101822.69;;;17.95;55.83
71384;BME280;61466;52.166;5.004;2022-07-29T05:20:26;101814.56;;;17.95;55.93
71384;BME280;61466;52.166;5.004;2022-07-29T05:22:57;101823.88;;;18.08;55.66
71384;BME280;61466;52.166;5.004;2022-07-29T05:25:23;101822.56;;;18.05;55.68
71384;BME280;61466;52.166;5.004;2022-07-29T05:27:49;101832.88;;;18.03;55.72
71384;BME280;61466;52.166;5.004;2022-07-29T05:30:14;101827.97;;;18.05;55.48
71384;BME280;61466;52.166;5.004;2022-07-29T05:32:40;101818.00;;;18.00;55.72
71384;BME280;61466;52.166;5.004;2022-07-29T05:35:05;101832.28;;;18.06;55.31
71384;BME280;61466;52.166;5.004;2022-07-29T05:37:31;101828.47;;;18.07;55.46
71384;BME280;61466;52.166;5.004;2022-07-29T05:39:56;101844.22;;;18.05;55.54
71384;BME280;61466;52.166;5.004;2022-07-29T05:42:22;101827.13;;;18.05;55.19
71384;BME280;61466;52.166;5.004;2022-07-29T05:44:47;101842.19;;;18.16;55.36
71384;BME280;61466;52.166;5.004;2022-07-29T05:47:12;101832.28;;;18.25;55.04
71384;BME280;61466;52.166;5.004;2022-07-29T05:49:38;101828.56;;;18.40;55.23
71384;BME280;61466;52.166;5.004;2022-07-29T05:52:03;101839.41;;;18.59;55.15
71384;BME280;61466;52.166;5.004;2022-07-29T05:54:29;101814.69;;;18.79;54.40
71384;BME280;61466;52.166;5.004;2022-07-29T05:56:54;101831.22;;;19.30;53.83
71384;BME280;61466;52.166;5.004;2022-07-29T05:59:19;101835.66;;;19.81;52.76
71384;BME280;61466;52.166;5.004;2022-07-29T06:01:45;101829.03;;;20.37;51.59
71384;BME280;61466;52.166;5.004;2022-07-29T06:04:10;101834.56;;;20.91;50.68
71384;BME280;61466;52.166;5.004;2022-07-29T06:06:35;101830.16;;;21.35;49.67
71384;BME280;61466;52.166;5.004;2022-07-29T06:09:02;101836.41;;;21.76;49.04
71384;BME280;61466;52.166;5.004;2022-07-29T06:11:27;101838.91;;;22.21;47.69
71384;BME280;61466;52.166;5.004;2022-07-29T06:13:53;101831.41;;;22.61;46.92
71384;BME280;61466;52.166;5.004;2022-07-29T06:16:18;101828.44;;;23.10;46.24
71384;BME280;61466;52.166;5.004;2022-07-29T06:18:44;101819.63;;;23.51;45.44
71384;BME280;61466;52.166;5.004;2022-07-29T06:21:09;101822.22;;;23.78;44.52
71384;BME280;61466;52.166;5.004;2022-07-29T06:23:36;101816.59;;;24.04;43.52
71384;BME280;61466;52.166;5.004;2022-07-29T06:26:02;101822.13;;;24.37;42.74
71384;BME280;61466;52.166;5.004;2022-07-29T06:28:27;101830.94;;;24.01;42.70
71384;BME280;61466;52.166;5.004;2022-07-29T06:30:53;101832.44;;;23.51;43.75
71384;BME280;61466;52.166;5.004;2022-07-29T06:33:18;101832.84;;;22.76;44.73
71384;BME280;61466;52.166;5.004;2022-07-29T06:35:44;101838.94;;;22.38;45.63
71384;BME280;61466;52.166;5.004;2022-07-29T06:38:13;101821.56;;;21.91;45.87
71384;BME280;61466;52.166;5.004;2022-07-29T06:40:45;101843.88;;;21.61;46.16
71384;BME280;61466;52.166;5.004;2022-07-29T06:43:36;101836.69;;;21.25;47.41
71384;BME280;61466;52.166;5.004;2022-07-29T06:46:09;101841.22;;;21.07;47.66
71384;BME280;61466;52.166;5.004;2022-07-29T06:48:35;101834.00;;;21.03;47.63
71384;BME280;61466;52.166;5.004;2022-07-29T06:51:04;101862.53;;;21.14;47.86
71384;BME280;61466;52.166;5.004;2022-07-29T06:53:31;101860.78;;;21.18;47.69
71384;BME280;61466;52.166;5.004;2022-07-29T06:55:57;101850.34;;;21.12;47.82
71384;BME280;61466;52.166;5.004;2022-07-29T06:58:24;101854.59;;;21.26;47.81
71384;BME280;61466;52.166;5.004;2022-07-29T07:00:50;101868.50;;;21.47;47.48
71384;BME280;61466;52.166;5.004;2022-07-29T07:03:16;101863.38;;;21.86;46.98
71384;BME280;61466;52.166;5.004;2022-07-29T07:05:42;101870.19;;;22.58;46.51
71384;BME280;61466;52.166;5.004;2022-07-29T07:08:08;101845.47;;;22.89;45.62
71384;BME280;61466;52.166;5.004;2022-07-29T07:10:34;101875.25;;;23.77;44.30
71384;BME280;61466;52.166;5.004;2022-07-29T07:13:00;101871.88;;;24.72;42.78
71384;BME280;61466;52.166;5.004;2022-07-29T07:15:26;101871.97;;;25.67;41.57
71384;BME280;61466;52.166;5.004;2022-07-29T07:17:52;101854.91;;;26.51;40.44
71384;BME280;61466;52.166;5.004;2022-07-29T07:20:17;101868.50;;;26.88;39.09
71384;BME280;61466;52.166;5.004;2022-07-29T07:22:43;101867.22;;;26.70;39.10
71384;BME280;61466;52.166;5.004;2022-07-29T07:25:09;101859.78;;;26.30;39.39
71384;BME280;61466;52.166;5.004;2022-07-29T07:27:36;101863.75;;;25.92;39.40
71384;BME280;61466;52.166;5.004;2022-07-29T07:30:06;101863.75;;;25.55;39.97
71384;BME280;61466;52.166;5.004;2022-07-29T07:32:34;101864.47;;;25.19;40.38
71384;BME280;61466;52.166;5.004;2022-07-29T07:35:00;101865.81;;;25.00;41.09
71384;BME280;61466;52.166;5.004;2022-07-29T07:37:25;101868.53;;;24.67;41.33
71384;BME280;61466;52.166;5.004;2022-07-29T07:39:52;101867.25;;;24.43;41.63
71384;BME280;61466;52.166;5.004;2022-07-29T07:42:18;101857.41;;;24.30;42.27
71384;BME280;61466;52.166;5.004;2022-07-29T07:44:44;101861.38;;;24.32;42.14
71384;BME280;61466;52.166;5.004;2022-07-29T07:47:11;101849.41;;;24.25;42.25
71384;BME280;61466;52.166;5.004;2022-07-29T07:49:36;101858.94;;;24.40;41.60
71384;BME280;61466;52.166;5.004;2022-07-29T07:52:02;101862.94;;;24.42;42.14
71384;BME280;61466;52.166;5.004;2022-07-29T07:54:27;101853.47;;;24.40;42.20
71384;BME280;61466;52.166;5.004;2022-07-29T07:56:53;101853.91;;;24.50;42.13
71384;BME280;61466;52.166;5.004;2022-07-29T07:59:18;101858.88;;;24.69;41.91
71384;BME280;61466;52.166;5.004;2022-07-29T08:01:43;101852.47;;;24.99;41.51
71384;BME280;61466;52.166;5.004;2022-07-29T08:04:09;101851.25;;;25.21;41.18
71384;BME280;61466;52.166;5.004;2022-07-29T08:06:34;101854.63;;;25.63;40.69
71384;BME280;61466;52.166;5.004;2022-07-29T08:09:01;101853.56;;;26.05;40.40
71384;BME280;61466;52.166;5.004;2022-07-29T08:11:27;101860.00;;;26.37;39.57
71384;BME280;61466;52.166;5.004;2022-07-29T08:13:52;101854.72;;;26.57;38.58
71384;BME280;61466;52.166;5.004;2022-07-29T08:16:18;101856.00;;;26.75;38.64
71384;BME280;61466;52.166;5.004;2022-07-29T08:18:45;101865.00;;;26.75;38.73
71384;BME280;61466;52.166;5.004;2022-07-29T08:21:11;101859.56;;;26.91;37.89
71384;BME280;61466;52.166;5.004;2022-07-29T08:23:37;101866.28;;;27.22;37.55
71384;BME280;61466;52.166;5.004;2022-07-29T08:26:11;101858.09;;;27.57;37.01
71384;BME280;61466;52.166;5.004;2022-07-29T08:28:37;101866.16;;;28.37;36.54
71384;BME280;61466;52.166;5.004;2022-07-29T08:31:03;101864.63;;;29.21;36.02
71384;BME280;61466;52.166;5.004;2022-07-29T08:33:28;101872.25;;;29.77;34.39
71384;BME280;61466;52.166;5.004;2022-07-29T08:35:54;101870.84;;;29.91;34.01
71384;BME280;61466;52.166;5.004;2022-07-29T08:38:19;101871.44;;;29.77;33.50
71384;BME280;61466;52.166;5.004;2022-07-29T08:40:45;101867.78;;;29.69;33.52
71384;BME280;61466;52.166;5.004;2022-07-29T08:43:11;101860.25;;;29.93;33.54
71384;BME280;61466;52.166;5.004;2022-07-29T08:45:48;101865.50;;;30.69;32.34
71384;BME280;61466;52.166;5.004;2022-07-29T08:48:19;101868.06;;;31.26;31.41
71384;BME280;61466;52.166;5.004;2022-07-29T08:50:46;101867.28;;;31.29;32.05
71384;BME280;61466;52.166;5.004;2022-07-29T08:53:13;101864.59;;;31.40;31.67
71384;BME280;61466;52.166;5.004;2022-07-29T08:55:45;101870.91;;;31.40;30.60
71384;BME280;61466;52.166;5.004;2022-07-29T08:58:13;101867.59;;;31.20;30.76
71384;BME280;61466;52.166;5.004;2022-07-29T09:00:46;101854.38;;;30.96;30.82
71384;BME280;61466;52.166;5.004;2022-07-29T09:03:16;101846.34;;;30.46;30.97
71384;BME280;61466;52.166;5.004;2022-07-29T09:05:44;101851.19;;;30.23;31.31
71384;BME280;61466;52.166;5.004;2022-07-29T09:08:10;101851.31;;;30.03;32.00
71384;BME280;61466;52.166;5.004;2022-07-29T09:10:36;101847.44;;;29.77;32.06
71384;BME280;61466;52.166;5.004;2022-07-29T09:13:02;101840.59;;;29.98;32.34
71384;BME280;61466;52.166;5.004;2022-07-29T09:15:28;101841.06;;;30.04;31.75
71384;BME280;61466;52.166;5.004;2022-07-29T09:17:53;101841.97;;;30.79;31.49
71384;BME280;61466;52.166;5.004;2022-07-29T09:20:21;101842.50;;;31.40;30.66
71384;BME280;61466;52.166;5.004;2022-07-29T09:22:47;101836.91;;;31.92;29.91
71384;BME280;61466;52.166;5.004;2022-07-29T09:25:16;101832.41;;;32.46;28.92
71384;BME280;61466;52.166;5.004;2022-07-29T09:28:05;101827.69;;;32.61;27.77
71384;BME280;61466;52.166;5.004;2022-07-29T09:30:31;101826.16;;;32.74;28.99
71384;BME280;61466;52.166;5.004;2022-07-29T09:32:58;101828.97;;;33.07;28.42
71384;BME280;61466;52.166;5.004;2022-07-29T09:35:26;101825.78;;;33.22;28.16
71384;BME280;61466;52.166;5.004;2022-07-29T09:37:52;101825.38;;;33.28;27.81
71384;BME280;61466;52.166;5.004;2022-07-29T09:40:19;101837.25;;;33.21;27.83
71384;BME280;61466;52.166;5.004;2022-07-29T09:42:45;101837.28;;;33.07;28.16
71384;BME280;61466;52.166;5.004;2022-07-29T09:45:11;101834.44;;;32.78;28.29
71384;BME280;61466;52.166;5.004;2022-07-29T09:47:55;101840.03;;;32.85;28.65
71384;BME280;61466;52.166;5.004;2022-07-29T09:50:22;101841.22;;;33.41;28.60
71384;BME280;61466;52.166;5.004;2022-07-29T09:52:51;101834.44;;;33.71;27.28
71384;BME280;61466;52.166;5.004;2022-07-29T09:55:18;101835.09;;;34.18;27.16
71384;BME280;61466;52.166;5.004;2022-07-29T09:57:45;101833.09;;;34.85;26.17
71384;BME280;61466;52.166;5.004;2022-07-29T10:00:16;101838.91;;;35.02;25.59
71384;BME280;61466;52.166;5.004;2022-07-29T10:02:44;101836.22;;;34.91;25.67
71384;BME280;61466;52.166;5.004;2022-07-29T10:05:24;101839.13;;;34.77;24.43
71384;BME280;61466;52.166;5.004;2022-07-29T10:07:55;101841.75;;;34.95;26.17
71384;BME280;61466;52.166;5.004;2022-07-29T10:10:24;101836.88;;;35.06;25.21
71384;BME280;61466;52.166;5.004;2022-07-29T10:13:01;101845.63;;;34.49;24.96
71384;BME280;61466;52.166;5.004;2022-07-29T10:15:30;101835.19;;;33.86;26.00
71384;BME280;61466;52.166;5.004;2022-07-29T10:17:58;101848.31;;;33.64;26.26
71384;BME280;61466;52.166;5.004;2022-07-29T10:20:23;101843.97;;;33.67;26.52
71384;BME280;61466;52.166;5.004;2022-07-29T10:22:50;101843.16;;;33.55;26.57
71384;BME280;61466;52.166;5.004;2022-07-29T10:25:17;101830.06;;;33.70;26.83
71384;BME280;61466;52.166;5.004;2022-07-29T10:27:44;101834.25;;;34.25;26.23
71384;BME280;61466;52.166;5.004;2022-07-29T10:30:11;101845.28;;;34.39;25.40
71384;BME280;61466;52.166;5.004;2022-07-29T10:38:36;101846.69;;;33.84;24.32
71384;BME280;61466;52.166;5.004;2022-07-29T10:43:51;101843.59;;;32.96;27.14
71384;BME280;61466;52.166;5.004;2022-07-29T10:46:17;101841.59;;;32.93;27.02
71384;BME280;61466;52.166;5.004;2022-07-29T10:49:12;101832.09;;;33.01;26.01
71384;BME280;61466;52.166;5.004;2022-07-29T10:51:55;101834.81;;;33.77;25.35
71384;BME280;61466;52.166;5.004;2022-07-29T10:57:24;101828.88;;;33.78;25.35
71384;BME280;61466;52.166;5.004;2022-07-29T11:07:38;101835.66;;;33.49;26.48
71384;BME280;61466;52.166;5.004;2022-07-29T11:15:05;101820.59;;;34.52;25.07
71384;BME280;61466;52.166;5.004;2022-07-29T11:20:42;101831.63;;;34.70;24.73
71384;BME280;61466;52.166;5.004;2022-07-29T11:23:27;101831.66;;;34.63;25.23
71384;BME280;61466;52.166;5.004;2022-07-29T11:31:16;101829.56;;;34.81;25.13
71384;BME280;61466;52.166;5.004;2022-07-29T11:33:41;101821.41;;;35.08;24.80
71384;BME280;61466;52.166;5.004;2022-07-29T11:36:09;101809.63;;;34.94;24.29
71384;BME280;61466;52.166;5.004;2022-07-29T11:38:35;101817.28;;;34.75;24.62
71384;BME280;61466;52.166;5.004;2022-07-29T11:43:58;101818.66;;;35.01;25.01
71384;BME280;61466;52.166;5.004;2022-07-29T11:46:47;101821.34;;;35.16;25.60
71384;BME280;61466;52.166;5.004;2022-07-29T11:49:19;101820.00;;;35.31;24.38
71384;BME280;61466;52.166;5.004;2022-07-29T11:51:57;101822.00;;;34.85;24.35
71384;BME280;61466;52.166;5.004;2022-07-29T11:54:30;101824.53;;;34.58;25.11
71384;BME280;61466;52.166;5.004;2022-07-29T11:56:57;101826.53;;;34.54;25.05
71384;BME280;61466;52.166;5.004;2022-07-29T11:59:24;101823.41;;;34.49;25.34
71384;BME280;61466;52.166;5.004;2022-07-29T12:01:54;101832.19;;;34.40;25.17
71384;BME280;61466;52.166;5.004;2022-07-29T12:04:19;101820.00;;;34.16;25.76
71384;BME280;61466;52.166;5.004;2022-07-29T12:06:52;101830.28;;;34.26;25.33
71384;BME280;61466;52.166;5.004;2022-07-29T12:09:18;101830.72;;;34.21;25.84
71384;BME280;61466;52.166;5.004;2022-07-29T12:11:45;101829.19;;;34.05;25.63
71384;BME280;61466;52.166;5.004;2022-07-29T12:14:33;101832.44;;;33.82;26.33
71384;BME280;61466;52.166;5.004;2022-07-29T12:16:59;101837.97;;;33.79;26.58
71384;BME280;61466;52.166;5.004;2022-07-29T12:19:26;101832.09;;;33.52;26.26
71384;BME280;61466;52.166;5.004;2022-07-29T12:21:55;101838.47;;;33.34;26.77
71384;BME280;61466;52.166;5.004;2022-07-29T12:24:23;101837.66;;;33.16;27.16
71384;BME280;61466;52.166;5.004;2022-07-29T12:26:56;101832.91;;;33.20;27.24
71384;BME280;61466;52.166;5.004;2022-07-29T12:29:22;101845.19;;;33.33;26.74
71384;BME280;61466;52.166;5.004;2022-07-29T12:31:52;101842.81;;;33.10;27.00
71384;BME280;61466;52.166;5.004;2022-07-29T12:34:26;101839.22;;;32.95;26.20
71384;BME280;61466;52.166;5.004;2022-07-29T12:36:53;101836.84;;;33.04;26.06
71384;BME280;61466;52.166;5.004;2022-07-29T12:39:19;101840.81;;;32.89;26.71
71384;BME280;61466;52.166;5.004;2022-07-29T12:41:45;101841.19;;;32.95;26.82
71384;BME280;61466;52.166;5.004;2022-07-29T12:44:11;101846.34;;;32.96;26.87
71384;BME280;61466;52.166;5.004;2022-07-29T12:46:36;101838.03;;;32.78;26.48
71384;BME280;61466;52.166;5.004;2022-07-29T12:49:03;101843.09;;;32.51;26.76
71384;BME280;61466;52.166;5.004;2022-07-29T12:56:30;101831.66;;;32.60;27.00
71384;BME280;61466;52.166;5.004;2022-07-29T12:58:55;101826.47;;;32.48;27.25
71384;BME280;61466;52.166;5.004;2022-07-29T13:01:21;101829.63;;;32.35;27.79
71384;BME280;61466;52.166;5.004;2022-07-29T13:03:58;101831.28;;;32.61;27.92
71384;BME280;61466;52.166;5.004;2022-07-29T13:06:36;101832.09;;;32.94;27.32
71384;BME280;61466;52.166;5.004;2022-07-29T13:11:44;101826.56;;;32.94;27.08
71384;BME280;61466;52.166;5.004;2022-07-29T13:14:12;101824.22;;;33.07;26.43
71384;BME280;61466;52.166;5.004;2022-07-29T13:16:59;101826.59;;;33.19;26.94
71384;BME280;61466;52.166;5.004;2022-07-29T13:22:06;101825.72;;;33.65;26.11
71384;BME280;61466;52.166;5.004;2022-07-29T13:24:31;101828.06;;;33.85;26.32
71384;BME280;61466;52.166;5.004;2022-07-29T13:26:57;101822.09;;;33.86;26.56
71384;BME280;61466;52.166;5.004;2022-07-29T13:29:22;101831.63;;;33.82;25.51
71384;BME280;61466;52.166;5.004;2022-07-29T13:31:48;101835.22;;;33.57;26.57
71384;BME280;61466;52.166;5.004;2022-07-29T13:34:13;101831.72;;;33.60;26.84
71384;BME280;61466;52.166;5.004;2022-07-29T13:36:39;101825.34;;;33.67;27.15
71384;BME280;61466;52.166;5.004;2022-07-29T13:39:04;101825.31;;;33.74;27.04
71384;BME280;61466;52.166;5.004;2022-07-29T13:41:29;101820.19;;;33.58;26.18
71384;BME280;61466;52.166;5.004;2022-07-29T13:43:55;101819.41;;;33.51;25.73
71384;BME280;61466;52.166;5.004;2022-07-29T13:46:20;101827.75;;;33.43;26.12